sensor_id;sensor_type;location;lat;lon;timestamp;pressure;altitude;pressure_sealevel;temperature;humidity
43824;BME280;29470;53.550;9.926;2022-08-01T00:02:37;100849.88;;;18.81;100.00
43824;BME280;29470;53.550;9.926;2022-08-01T00:07:41;100844.84;;;18.87;100.00
43824;BME280;29470;53.550;9.926;2022-08-01T00:12:45;100849.91;;;18.82;100.00
43824;BME280;29470;53.550;9.926;2022-08-01T00:17:48;100849.88;;;18.81;100.00
43824;BME280;29470;53.550;9.926;2022-08-01T00:22:52;100846.19;;;18.76;100.00
43824;BME280;29470;53.550;9.926;2022-08-01T00:27:55;100846.94;;;18.73;100.00
43824;BME280;29470;53.550;9.926;2022-08-01T00:32:58;100847.13;;;18.78;100.00
43824;BME280;29470;53.550;9.926;2022-08-01T00:38:02;100843.25;;;18.68;100.00
43824;BME280;29470;53.550;9.926;2022-08-01T00:43:05;100836.81;;;18.82;100.00
43824;BME280;29470;53.550;9.926;2022-08-01T00:48:08;100844.19;;;18.70;100.00
43824;BME280;29470;53.550;9.926;2022-08-01T00:53:12;100842.72;;;18.77;100.00
43824;BME280;29470;53.550;9.926;2022-08-01T00:58:19;100845.94;;;18.69;100.00
43824;BME280;29470;53.550;9.926;2022-08-01T01:03:24;100841.53;;;18.68;100.00
43824;BME280;29470;53.550;9.926;2022-08-01T01:08:54;100848.06;;;18.80;100.00
43824;BME280;29470;53.550;9.926;2022-08-01T01:14:01;100845.16;;;18.72;100.00
43824;BME280;29470;53.550;9.926;2022-08-01T01:19:09;100844.84;;;18.87;100.00
43824;BME280;29470;53.550;9.926;2022-08-01T01:24:21;100851.78;;;18.62;100.00
43824;BME280;29470;53.550;9.926;2022-08-01T01:29:34;100851.56;;;18.80;100.00
43824;BME280;29470;53.550;9.926;2022-08-01T01:34:59;100852.84;;;18.67;100.00
43824;BME280;29470;53.550;9.926;2022-08-01T01:40:05;100854.28;;;18.59;100.00
43824;BME280;29470;53.550;9.926;2022-08-01T01:45:10;100861.53;;;18.66;100.00
43824;BME280;29470;53.550;9.926;2022-08-01T01:50:14;100861.31;;;18.60;100.00
43824;BME280;29470;53.550;9.926;2022-08-01T01:55:18;100866.72;;;18.65;100.00
43824;BME280;29470;53.550;9.926;2022-08-01T02:00:23;100862.25;;;18.62;100.00
43824;BME280;29470;53.550;9.926;2022-08-01T02:05:27;100872.16;;;18.69;100.00
43824;BME280;29470;53.550;9.926;2022-08-01T02:10:32;100875.84;;;18.75;100.00
43824;BME280;29470;53.550;9.926;2022-08-01T02:15:38;100868.38;;;18.63;100.00
43824;BME280;29470;53.550;9.926;2022-08-01T02:21:02;100875.38;;;18.62;100.00
43824;BME280;29470;53.550;9.926;2022-08-01T02:26:08;100873.34;;;18.55;100.00
43824;BME280;29470;53.550;9.926;2022-08-01T02:31:17;100861.47;;;18.65;100.00
43824;BME280;29470;53.550;9.926;2022-08-01T02:36:23;100871.22;;;18.69;100.00
43824;BME280;29470;53.550;9.926;2022-08-01T02:41:37;100868.94;;;18.77;100.00
43824;BME280;29470;53.550;9.926;2022-08-01T02:46:48;100875.72;;;18.72;100.00
43824;BME280;29470;53.550;9.926;2022-08-01T02:51:53;100878.69;;;18.58;100.00
43824;BME280;29470;53.550;9.926;2022-08-01T02:56:58;100878.03;;;18.64;100.00
43824;BME280;29470;53.550;9.926;2022-08-01T03:02:06;100881.16;;;18.53;100.00
43824;BME280;29470;53.550;9.926;2022-08-01T03:07:12;100887.75;;;18.66;100.00
43824;BME280;29470;53.550;9.926;2022-08-01T03:12:17;100881.66;;;18.45;100.00
43824;BME280;29470;53.550;9.926;2022-08-01T03:17:24;100892.47;;;18.52;100.00
43824;BME280;29470;53.550;9.926;2022-08-01T03:22:29;100889.28;;;18.61;100.00
43824;BME280;29470;53.550;9.926;2022-08-01T03:27:35;100895.84;;;18.50;100.00
43824;BME280;29470;53.550;9.926;2022-08-01T03:32:40;100897.03;;;18.58;100.00
43824;BME280;29470;53.550;9.926;2022-08-01T03:37:46;100897.06;;;18.60;100.00
43824;BME280;29470;53.550;9.926;2022-08-01T03:43:12;100899.63;;;18.35;100.00
43824;BME280;29470;53.550;9.926;2022-08-01T03:48:22;100904.16;;;18.39;100.00
43824;BME280;29470;53.550;9.926;2022-08-01T03:53:30;100904.59;;;18.50;100.00
43824;BME280;29470;53.550;9.926;2022-08-01T03:58:36;100913.44;;;18.31;100.00
43824;BME280;29470;53.550;9.926;2022-08-01T04:03:42;100916.88;;;18.30;100.00
43824;BME280;29470;53.550;9.926;2022-08-01T04:08:45;100918.28;;;18.43;100.00
43824;BME280;29470;53.550;9.926;2022-08-01T04:13:57;100929.34;;;18.36;100.00
43824;BME280;29470;53.550;9.926;2022-08-01T04:19:01;100927.69;;;18.38;100.00
43824;BME280;29470;53.550;9.926;2022-08-01T04:24:11;100928.69;;;18.42;100.00
43824;BME280;29470;53.550;9.926;2022-08-01T04:29:16;100937.94;;;18.33;100.00
43824;BME280;29470;53.550;9.926;2022-08-01T04:34:24;100956.78;;;18.46;100.00
43824;BME280;29470;53.550;9.926;2022-08-01T04:39:28;100961.97;;;18.44;100.00
43824;BME280;29470;53.550;9.926;2022-08-01T04:44:51;100957.84;;;18.51;100.00
43824;BME280;29470;53.550;9.926;2022-08-01T04:49:56;100958.56;;;18.47;100.00
43824;BME280;29470;53.550;9.926;2022-08-01T04:54:59;100973.00;;;18.58;100.00
43824;BME280;29470;53.550;9.926;2022-08-01T05:00:03;100973.28;;;18.66;100.00
43824;BME280;29470;53.550;9.926;2022-08-01T05:05:09;100970.53;;;18.63;100.00
43824;BME280;29470;53.550;9.926;2022-08-01T05:10:14;100965.78;;;18.75;100.00
43824;BME280;29470;53.550;9.926;2022-08-01T05:15:17;100968.59;;;18.80;100.00
43824;BME280;29470;53.550;9.926;2022-08-01T05:20:21;100978.78;;;18.72;100.00
43824;BME280;29470;53.550;9.926;2022-08-01T05:25:24;100982.47;;;18.77;100.00
43824;BME280;29470;53.550;9.926;2022-08-01T05:30:47;100999.69;;;18.93;100.00
43824;BME280;29470;53.550;9.926;2022-08-01T05:35:51;100995.28;;;18.92;100.00
43824;BME280;29470;53.550;9.926;2022-08-01T05:40:54;101008.31;;;18.91;100.00
43824;BME280;29470;53.550;9.926;2022-08-01T05:45:57;100995.81;;;18.83;100.00
43824;BME280;29470;53.550;9.926;2022-08-01T05:51:01;101007.97;;;18.81;100.00
43824;BME280;29470;53.550;9.926;2022-08-01T05:56:05;101009.63;;;18.79;100.00
43824;BME280;29470;53.550;9.926;2022-08-01T06:01:07;101016.81;;;18.62;100.00
43824;BME280;29470;53.550;9.926;2022-08-01T06:06:12;101016.25;;;18.92;100.00
43824;BME280;29470;53.550;9.926;2022-08-01T06:11:16;101022.19;;;19.32;99.93
43824;BME280;29470;53.550;9.926;2022-08-01T06:16:19;101028.69;;;19.66;97.41
43824;BME280;29470;53.550;9.926;2022-08-01T06:21:23;101031.91;;;19.59;96.49
43824;BME280;29470;53.550;9.926;2022-08-01T06:26:26;101040.75;;;19.61;97.07
43824;BME280;29470;53.550;9.926;2022-08-01T06:31:29;101050.66;;;19.46;96.15
43824;BME280;29470;53.550;9.926;2022-08-01T06:36:35;101051.75;;;19.52;97.21
43824;BME280;29470;53.550;9.926;2022-08-01T06:41:38;101057.34;;;19.37;97.48
43824;BME280;29470;53.550;9.926;2022-08-01T06:46:43;101063.41;;;19.59;94.89
43824;BME280;29470;53.550;9.926;2022-08-01T06:51:47;101066.25;;;19.65;94.73
43824;BME280;29470;53.550;9.926;2022-08-01T06:56:50;101071.09;;;19.54;93.63
43824;BME280;29470;53.550;9.926;2022-08-01T07:01:52;101072.69;;;19.73;92.15
43824;BME280;29470;53.550;9.926;2022-08-01T07:06:57;101085.13;;;20.28;88.86
43824;BME280;29470;53.550;9.926;2022-08-01T07:12:00;101084.06;;;20.74;85.00
43824;BME280;29470;53.550;9.926;2022-08-01T07:17:03;101088.41;;;20.72;87.42
43824;BME280;29470;53.550;9.926;2022-08-01T07:22:07;101096.63;;;19.83;90.62
43824;BME280;29470;53.550;9.926;2022-08-01T07:27:11;101095.81;;;19.37;89.91
43824;BME280;29470;53.550;9.926;2022-08-01T07:32:26;101100.41;;;19.90;87.71
43824;BME280;29470;53.550;9.926;2022-08-01T07:37:32;101116.50;;;19.76;88.58
43824;BME280;29470;53.550;9.926;2022-08-01T07:42:52;101120.31;;;20.31;85.45
43824;BME280;29470;53.550;9.926;2022-08-01T07:47:55;101123.19;;;19.91;87.78
43824;BME280;29470;53.550;9.926;2022-08-01T07:52:59;101125.72;;;20.62;84.71
43824;BME280;29470;53.550;9.926;2022-08-01T07:58:03;101139.81;;;21.17;79.93
43824;BME280;29470;53.550;9.926;2022-08-01T08:03:06;101146.97;;;21.22;79.02
43824;BME280;29470;53.550;9.926;2022-08-01T08:08:10;101150.88;;;21.07;79.35
43824;BME280;29470;53.550;9.926;2022-08-01T08:13:15;101152.25;;;20.96;79.25
43824;BME280;29470;53.550;9.926;2022-08-01T08:18:19;101160.56;;;21.08;75.48
43824;BME280;29470;53.550;9.926;2022-08-01T08:23:23;101169.38;;;21.09;66.32
43824;BME280;29470;53.550;9.926;2022-08-01T08:28:44;101171.72;;;21.56;62.56
43824;BME280;29470;53.550;9.926;2022-08-01T08:33:47;101176.56;;;21.71;61.71
43824;BME280;29470;53.550;9.926;2022-08-01T08:38:52;101180.56;;;21.03;63.86
43824;BME280;29470;53.550;9.926;2022-08-01T08:43:54;101179.16;;;21.14;64.50
43824;BME280;29470;53.550;9.926;2022-08-01T08:48:59;101190.00;;;20.96;65.77
43824;BME280;29470;53.550;9.926;2022-08-01T08:54:07;101189.16;;;20.97;60.02
43824;BME280;29470;53.550;9.926;2022-08-01T08:59:11;101193.66;;;21.01;60.54
43824;BME280;29470;53.550;9.926;2022-08-01T09:04:16;101204.38;;;21.08;60.80
43824;BME280;29470;53.550;9.926;2022-08-01T09:09:24;101203.16;;;21.24;58.86
43824;BME280;29470;53.550;9.926;2022-08-01T09:14:27;101213.38;;;21.42;60.84
43824;BME280;29470;53.550;9.926;2022-08-01T09:19:35;101211.75;;;21.18;65.82
43824;BME280;29470;53.550;9.926;2022-08-01T09:24:56;101217.66;;;21.38;65.21
43824;BME280;29470;53.550;9.926;2022-08-01T09:30:09;101221.81;;;22.17;64.68
43824;BME280;29470;53.550;9.926;2022-08-01T09:35:26;101224.69;;;22.55;65.27
43824;BME280;29470;53.550;9.926;2022-08-01T09:40:46;101235.97;;;22.82;63.67
43824;BME280;29470;53.550;9.926;2022-08-01T09:45:50;101233.31;;;22.49;64.62
43824;BME280;29470;53.550;9.926;2022-08-01T09:50:56;101235.06;;;22.20;64.42
43824;BME280;29470;53.550;9.926;2022-08-01T09:56:10;101239.47;;;22.50;63.09
43824;BME280;29470;53.550;9.926;2022-08-01T10:01:13;101245.13;;;21.48;67.30
43824;BME280;29470;53.550;9.926;2022-08-01T10:06:19;101242.03;;;22.18;66.00
43824;BME280;29470;53.550;9.926;2022-08-01T10:11:28;101244.72;;;22.19;62.74
43824;BME280;29470;53.550;9.926;2022-08-01T10:16:38;101250.25;;;21.98;62.01
43824;BME280;29470;53.550;9.926;2022-08-01T10:21:44;101263.19;;;22.21;61.00
43824;BME280;29470;53.550;9.926;2022-08-01T10:27:03;101246.59;;;22.24;62.11
43824;BME280;29470;53.550;9.926;2022-08-01T10:32:10;101254.50;;;22.53;60.97
43824;BME280;29470;53.550;9.926;2022-08-01T10:37:13;101269.84;;;22.08;58.89
43824;BME280;29470;53.550;9.926;2022-08-01T10:42:18;101252.16;;;22.33;57.74
43824;BME280;29470;53.550;9.926;2022-08-01T10:47:25;101261.78;;;22.32;58.09
43824;BME280;29470;53.550;9.926;2022-08-01T10:58:23;101273.72;;;21.90;57.03
43824;BME280;29470;53.550;9.926;2022-08-01T11:03:34;101272.97;;;22.24;54.19
43824;BME280;29470;53.550;9.926;2022-08-01T11:08:58;101272.44;;;21.77;56.72
43824;BME280;29470;53.550;9.926;2022-08-01T11:14:03;101260.34;;;22.13;54.53
43824;BME280;29470;53.550;9.926;2022-08-01T11:19:11;101276.91;;;22.38;51.39
43824;BME280;29470;53.550;9.926;2022-08-01T11:24:13;101275.97;;;22.36;51.77
43824;BME280;29470;53.550;9.926;2022-08-01T11:29:18;101278.69;;;22.10;54.87
43824;BME280;29470;53.550;9.926;2022-08-01T11:34:53;101270.69;;;22.36;52.23
43824;BME280;29470;53.550;9.926;2022-08-01T11:40:16;101283.69;;;22.30;54.31
43824;BME280;29470;53.550;9.926;2022-08-01T11:45:21;101284.06;;;21.84;54.64
43824;BME280;29470;53.550;9.926;2022-08-01T11:50:44;101286.19;;;21.96;53.81
43824;BME280;29470;53.550;9.926;2022-08-01T11:55:49;101284.13;;;21.86;56.52
43824;BME280;29470;53.550;9.926;2022-08-01T12:00:56;101283.63;;;22.28;56.56
43824;BME280;29470;53.550;9.926;2022-08-01T12:05:59;101281.22;;;22.65;52.77
43824;BME280;29470;53.550;9.926;2022-08-01T12:11:03;101301.69;;;22.45;53.06
43824;BME280;29470;53.550;9.926;2022-08-01T12:16:09;101296.88;;;22.31;54.02
43824;BME280;29470;53.550;9.926;2022-08-01T12:21:12;101301.47;;;22.37;54.17
43824;BME280;29470;53.550;9.926;2022-08-01T12:26:15;101301.56;;;22.11;54.58
43824;BME280;29470;53.550;9.926;2022-08-01T12:31:34;101311.78;;;22.00;54.57
43824;BME280;29470;53.550;9.926;2022-08-01T12:36:37;101317.91;;;22.01;54.44
43824;BME280;29470;53.550;9.926;2022-08-01T12:41:42;101319.41;;;21.92;53.24
43824;BME280;29470;53.550;9.926;2022-08-01T12:46:47;101308.00;;;21.92;53.18
43824;BME280;29470;53.550;9.926;2022-08-01T12:51:50;101306.88;;;21.58;55.31
43824;BME280;29470;53.550;9.926;2022-08-01T12:56:58;101316.03;;;21.97;53.97
43824;BME280;29470;53.550;9.926;2022-08-01T13:02:08;101307.84;;;21.87;51.98
43824;BME280;29470;53.550;9.926;2022-08-01T13:07:12;101305.47;;;21.95;52.53
43824;BME280;29470;53.550;9.926;2022-08-01T13:12:15;101316.84;;;21.67;51.21
43824;BME280;29470;53.550;9.926;2022-08-01T13:17:31;101307.25;;;21.43;50.78
43824;BME280;29470;53.550;9.926;2022-08-01T13:22:34;101306.13;;;21.88;52.11
43824;BME280;29470;53.550;9.926;2022-08-01T13:27:38;101320.03;;;21.58;53.44
43824;BME280;29470;53.550;9.926;2022-08-01T13:32:59;101316.50;;;21.57;52.96
43824;BME280;29470;53.550;9.926;2022-08-01T13:38:02;101315.75;;;21.87;50.44
43824;BME280;29470;53.550;9.926;2022-08-01T13:43:05;101310.28;;;21.81;50.68
43824;BME280;29470;53.550;9.926;2022-08-01T13:48:09;101323.47;;;22.10;49.00
43824;BME280;29470;53.550;9.926;2022-08-01T13:53:19;101320.31;;;21.66;50.55
43824;BME280;29470;53.550;9.926;2022-08-01T13:58:22;101321.41;;;21.72;49.59
43824;BME280;29470;53.550;9.926;2022-08-01T14:03:26;101311.53;;;21.65;49.78
43824;BME280;29470;53.550;9.926;2022-08-01T14:08:34;101321.06;;;21.89;49.74
43824;BME280;29470;53.550;9.926;2022-08-01T14:13:37;101334.66;;;22.03;46.82
43824;BME280;29470;53.550;9.926;2022-08-01T14:18:48;101338.25;;;21.52;49.61
43824;BME280;29470;53.550;9.926;2022-08-01T14:23:51;101334.81;;;21.80;47.92
43824;BME280;29470;53.550;9.926;2022-08-01T14:28:54;101343.25;;;21.70;51.42
43824;BME280;29470;53.550;9.926;2022-08-01T14:33:58;101347.44;;;21.39;49.93
43824;BME280;29470;53.550;9.926;2022-08-01T14:39:01;101345.00;;;21.43;50.30
43824;BME280;29470;53.550;9.926;2022-08-01T14:44:05;101352.47;;;21.57;48.72
43824;BME280;29470;53.550;9.926;2022-08-01T14:49:09;101348.91;;;21.30;51.12
43824;BME280;29470;53.550;9.926;2022-08-01T14:54:12;101349.22;;;21.64;51.24
43824;BME280;29470;53.550;9.926;2022-08-01T14:59:15;101354.78;;;21.47;49.54
43824;BME280;29470;53.550;9.926;2022-08-01T15:04:23;101352.31;;;21.02;51.59
43824;BME280;29470;53.550;9.926;2022-08-01T15:09:26;101349.19;;;20.88;51.31
43824;BME280;29470;53.550;9.926;2022-08-01T15:14:29;101347.09;;;21.28;51.37
43824;BME280;29470;53.550;9.926;2022-08-01T15:19:54;101355.75;;;20.99;52.34
43824;BME280;29470;53.550;9.926;2022-08-01T15:24:58;101354.94;;;20.78;52.70
43824;BME280;29470;53.550;9.926;2022-08-01T15:30:03;101363.16;;;21.11;51.96
43824;BME280;29470;53.550;9.926;2022-08-01T15:35:08;101364.22;;;21.16;53.51
43824;BME280;29470;53.550;9.926;2022-08-01T15:40:12;101354.09;;;21.03;54.15
43824;BME280;29470;53.550;9.926;2022-08-01T15:45:15;101363.28;;;20.90;54.15
43824;BME280;29470;53.550;9.926;2022-08-01T15:50:41;101368.91;;;20.99;52.09
43824;BME280;29470;53.550;9.926;2022-08-01T15:55:44;101376.25;;;20.40;53.86
43824;BME280;29470;53.550;9.926;2022-08-01T16:00:53;101373.22;;;20.52;54.43
43824;BME280;29470;53.550;9.926;2022-08-01T16:05:57;101384.97;;;20.39;54.58
43824;BME280;29470;53.550;9.926;2022-08-01T16:11:00;101383.00;;;20.56;55.11
43824;BME280;29470;53.550;9.926;2022-08-01T16:16:04;101368.38;;;20.63;54.84
43824;BME280;29470;53.550;9.926;2022-08-01T16:21:08;101381.22;;;20.32;55.18
43824;BME280;29470;53.550;9.926;2022-08-01T16:26:12;101396.69;;;20.47;54.57
43824;BME280;29470;53.550;9.926;2022-08-01T16:31:28;101397.50;;;20.46;54.66
43824;BME280;29470;53.550;9.926;2022-08-01T16:36:46;101393.06;;;19.99;56.82
43824;BME280;29470;53.550;9.926;2022-08-01T16:41:50;101402.16;;;20.08;56.16
43824;BME280;29470;53.550;9.926;2022-08-01T16:47:06;101400.44;;;19.67;56.72
43824;BME280;29470;53.550;9.926;2022-08-01T16:52:11;101406.78;;;19.72;57.18
43824;BME280;29470;53.550;9.926;2022-08-01T16:57:14;101408.31;;;19.88;56.94
43824;BME280;29470;53.550;9.926;2022-08-01T17:02:17;101416.03;;;19.84;56.04
43824;BME280;29470;53.550;9.926;2022-08-01T17:07:21;101410.94;;;19.88;56.54
43824;BME280;29470;53.550;9.926;2022-08-01T17:12:24;101410.03;;;19.67;56.79
43824;BME280;29470;53.550;9.926;2022-08-01T17:17:27;101421.75;;;19.54;57.27
43824;BME280;29470;53.550;9.926;2022-08-01T17:22:32;101413.97;;;19.36;58.06
43824;BME280;29470;53.550;9.926;2022-08-01T17:27:35;101422.19;;;19.24;58.04
43824;BME280;29470;53.550;9.926;2022-08-01T17:32:39;101412.47;;;19.02;58.88
43824;BME280;29470;53.550;9.926;2022-08-01T17:37:44;101419.06;;;18.93;59.04
43824;BME280;29470;53.550;9.926;2022-08-01T17:42:47;101411.66;;;18.84;59.15
43824;BME280;29470;53.550;9.926;2022-08-01T17:47:50;101416.47;;;18.75;59.98
43824;BME280;29470;53.550;9.926;2022-08-01T17:52:54;101426.34;;;18.81;59.38
43824;BME280;29470;53.550;9.926;2022-08-01T17:57:57;101426.75;;;18.70;59.65
43824;BME280;29470;53.550;9.926;2022-08-01T18:03:00;101438.50;;;18.61;59.39
43824;BME280;29470;53.550;9.926;2022-08-01T18:08:04;101433.16;;;18.21;60.23
43824;BME280;29470;53.550;9.926;2022-08-01T18:13:08;101436.13;;;18.11;60.95
43824;BME280;29470;53.550;9.926;2022-08-01T18:18:11;101435.69;;;18.20;60.97
43824;BME280;29470;53.550;9.926;2022-08-01T18:23:19;101440.00;;;18.01;61.18
43824;BME280;29470;53.550;9.926;2022-08-01T18:28:22;101436.72;;;18.05;60.86
43824;BME280;29470;53.550;9.926;2022-08-01T18:33:35;101435.34;;;17.95;61.95
43824;BME280;29470;53.550;9.926;2022-08-01T18:38:40;101446.66;;;17.78;62.41
43824;BME280;29470;53.550;9.926;2022-08-01T18:43:45;101439.38;;;17.72;63.10
43824;BME280;29470;53.550;9.926;2022-08-01T18:48:49;101449.00;;;17.55;63.91
43824;BME280;29470;53.550;9.926;2022-08-01T18:53:53;101444.91;;;17.44;64.76
43824;BME280;29470;53.550;9.926;2022-08-01T18:58:58;101440.19;;;17.20;65.94
43824;BME280;29470;53.550;9.926;2022-08-01T19:04:01;101447.28;;;17.06;66.56
43824;BME280;29470;53.550;9.926;2022-08-01T19:09:05;101458.28;;;17.00;67.01
43824;BME280;29470;53.550;9.926;2022-08-01T19:14:09;101465.44;;;16.88;68.07
43824;BME280;29470;53.550;9.926;2022-08-01T19:19:12;101467.16;;;16.87;68.06
43824;BME280;29470;53.550;9.926;2022-08-01T19:24:29;101471.88;;;16.78;67.80
43824;BME280;29470;53.550;9.926;2022-08-01T19:29:34;101478.13;;;16.65;68.66
43824;BME280;29470;53.550;9.926;2022-08-01T19:34:44;101482.19;;;16.60;68.78
43824;BME280;29470;53.550;9.926;2022-08-01T19:39:51;101489.56;;;16.52;69.29
43824;BME280;29470;53.550;9.926;2022-08-01T19:44:54;101487.47;;;16.30;70.70
43824;BME280;29470;53.550;9.926;2022-08-01T19:49:58;101490.53;;;16.23;70.79
43824;BME280;29470;53.550;9.926;2022-08-01T19:55:04;101494.47;;;16.16;71.49
43824;BME280;29470;53.550;9.926;2022-08-01T20:00:10;101498.97;;;16.03;72.26
43824;BME280;29470;53.550;9.926;2022-08-01T20:05:29;101504.72;;;15.98;72.62
43824;BME280;29470;53.550;9.926;2022-08-01T20:10:33;101495.16;;;15.83;73.24
43824;BME280;29470;53.550;9.926;2022-08-01T20:15:38;101498.31;;;15.78;74.26
43824;BME280;29470;53.550;9.926;2022-08-01T20:20:45;101505.22;;;15.77;74.13
43824;BME280;29470;53.550;9.926;2022-08-01T20:25:51;101510.13;;;15.57;75.01
43824;BME280;29470;53.550;9.926;2022-08-01T20:30:59;101503.44;;;15.48;75.73
43824;BME280;29470;53.550;9.926;2022-08-01T20:36:17;101492.34;;;15.37;76.21
43824;BME280;29470;53.550;9.926;2022-08-01T20:41:28;101496.19;;;15.28;76.22
43824;BME280;29470;53.550;9.926;2022-08-01T20:46:30;101496.19;;;15.28;76.30
43824;BME280;29470;53.550;9.926;2022-08-01T20:51:34;101506.44;;;15.12;77.50
43824;BME280;29470;53.550;9.926;2022-08-01T20:56:50;101502.16;;;15.12;77.64
43824;BME280;29470;53.550;9.926;2022-08-01T21:02:04;101516.72;;;14.95;78.18
43824;BME280;29470;53.550;9.926;2022-08-01T21:07:17;101522.44;;;14.90;78.74
43824;BME280;29470;53.550;9.926;2022-08-01T21:12:33;101519.03;;;14.91;78.77
43824;BME280;29470;53.550;9.926;2022-08-01T21:17:44;101534.47;;;14.74;79.22
43824;BME280;29470;53.550;9.926;2022-08-01T21:22:53;101525.16;;;14.78;79.02
43824;BME280;29470;53.550;9.926;2022-08-01T21:28:00;101518.03;;;14.75;79.65
43824;BME280;29470;53.550;9.926;2022-08-01T21:33:04;101524.00;;;14.61;79.97
43824;BME280;29470;53.550;9.926;2022-08-01T21:38:07;101527.63;;;14.63;79.84
43824;BME280;29470;53.550;9.926;2022-08-01T21:43:12;101523.19;;;14.48;80.28
43824;BME280;29470;53.550;9.926;2022-08-01T21:48:16;101520.31;;;14.57;79.93
43824;BME280;29470;53.550;9.926;2022-08-01T21:53:35;101521.41;;;14.47;80.06
43824;BME280;29470;53.550;9.926;2022-08-01T21:58:51;101514.31;;;14.58;79.31
43824;BME280;29470;53.550;9.926;2022-08-01T22:03:58;101513.72;;;14.49;79.80
43824;BME280;29470;53.550;9.926;2022-08-01T22:09:05;101522.19;;;14.46;79.92
43824;BME280;29470;53.550;9.926;2022-08-01T22:14:10;101520.19;;;14.42;79.93
43824;BME280;29470;53.550;9.926;2022-08-01T22:19:17;101527.50;;;14.34;80.17
43824;BME280;29470;53.550;9.926;2022-08-01T22:24:40;101525.28;;;14.27;81.16
43824;BME280;29470;53.550;9.926;2022-08-01T22:29:45;101528.06;;;14.17;81.85
43824;BME280;29470;53.550;9.926;2022-08-01T22:34:48;101523.28;;;14.23;81.25
43824;BME280;29470;53.550;9.926;2022-08-01T22:39:53;101532.06;;;14.11;82.08
43824;BME280;29470;53.550;9.926;2022-08-01T22:45:03;101528.59;;;14.11;82.29
43824;BME280;29470;53.550;9.926;2022-08-01T22:50:12;101527.16;;;14.03;82.68
43824;BME280;29470;53.550;9.926;2022-08-01T22:55:37;101525.94;;;13.97;82.92
43824;BME280;29470;53.550;9.926;2022-08-01T23:01:01;101514.75;;;13.98;83.20
43824;BME280;29470;53.550;9.926;2022-08-01T23:06:10;101517.53;;;13.88;83.83
43824;BME280;29470;53.550;9.926;2022-08-01T23:11:13;101508.59;;;13.84;83.96
43824;BME280;29470;53.550;9.926;2022-08-01T23:16:18;101504.69;;;13.78;84.34
43824;BME280;29470;53.550;9.926;2022-08-01T23:21:22;101507.88;;;13.74;84.88
43824;BME280;29470;53.550;9.926;2022-08-01T23:26:27;101506.16;;;13.74;84.99
43824;BME280;29470;53.550;9.926;2022-08-01T23:31:32;101521.91;;;13.64;85.10
43824;BME280;29470;53.550;9.926;2022-08-01T23:36:55;101510.63;;;13.63;85.32
43824;BME280;29470;53.550;9.926;2022-08-01T23:41:58;101509.28;;;13.57;85.48
43824;BME280;29470;53.550;9.926;2022-08-01T23:47:09;101514.59;;;13.58;86.02
43824;BME280;29470;53.550;9.926;2022-08-01T23:52:15;101514.28;;;13.53;85.98
43824;BME280;29470;53.550;9.926;2022-08-01T23:57:22;101519.25;;;13.50;86.08
